Time;durP1;ratioP1;P1;durP2;ratioP2;P2;SDS_P1;SDS_P2;PMS_P1;PMS_P2;Temp;Humidity;BMP_temperature;BMP_pressure;BME280_temperature;BME280_humidity;BME280_pressure;Samples;Min_cycle;Max_cycle;Signal;HPM_P1;HPM_P2
2021/07/08 00:00:44;;;;;;;6.63;4.85;;;;;;;;;;4992068;28;20093;-76
2021/07/08 00:03:10;;;;;;;;;;;;;;;;;;4992211;28;20026;-74
2021/07/08 00:05:39;;;;;;;7.93;4.80;;;;;;;;;;5023172;28;19913;-73
2021/07/08 00:08:05;;;;;;;10.10;5.10;;;;;;;;;;4991256;28;20030;-73
2021/07/08 00:10:37;;;;;;;7.20;4.75;;;;;;;;;;4991613;28;20390;-73
2021/07/08 00:13:03;;;;;;;7.43;4.57;;;;;;;;;;4991449;28;20022;-74
2021/07/08 00:15:29;;;;;;;8.73;5.28;;;;;;;;;;4991491;28;20077;-74
2021/07/08 00:17:56;;;;;;;7.50;5.75;;;;;;;;;;5022611;28;20117;-75
2021/07/08 00:20:24;;;;;;;6.78;5.25;;;;;;;;;;4989947;28;20054;-74
2021/07/08 00:22:50;;;;;;;11.52;5.55;;;;;;;;;;4990965;28;20038;-73
2021/07/08 00:25:20;;;;;;;11.95;5.70;;;;;;;;;;4989999;28;20077;-75
2021/07/08 00:27:46;;;;;;;7.30;5.07;;;;;;;;;;5022809;28;20058;-75
2021/07/08 00:30:12;;;;;;;8.85;5.72;;;;;;;;;;4991423;28;20507;-74
2021/07/08 00:32:40;;;;;;;10.20;5.65;;;;;;;;;;4991762;28;20034;-75
2021/07/08 00:35:06;;;;;;;11.88;8.32;;;;;;;;;;5022958;28;20547;-75
2021/07/08 00:37:31;;;;;;;8.45;5.93;;;;;;;;;;4991412;28;20101;-74
2021/07/08 00:39:57;;;;;;;8.73;5.85;;;;;;;;;;5022468;28;20022;-75
2021/07/08 00:42:22;;;;;;;8.15;5.40;;;;;;;;;;4991213;28;20061;-75
2021/07/08 00:44:48;;;;;;;8.13;5.70;;;;;;;;;;4990824;28;20529;-75
2021/07/08 00:47:14;;;;;;;6.85;5.13;;;;;;;;;;5021815;28;20026;-74
2021/07/08 00:49:39;;;;;;;15.13;6.10;;;;;;;;;;4990690;28;20023;-73
2021/07/08 00:52:05;;;;;;;10.38;5.35;;;;;;;;;;4990689;28;20193;-74
2021/07/08 00:54:31;;;;;;;9.32;6.07;;;;;;;;;;4990998;28;20027;-74
2021/07/08 00:56:56;;;;;;;8.13;5.65;;;;;;;;;;4991050;28;20360;-74
2021/07/08 00:59:22;;;;;;;12.45;6.13;;;;;;;;;;4990667;28;20050;-74
2021/07/08 01:01:49;;;;;;;8.05;5.38;;;;;;;;;;5021961;28;20037;-74
2021/07/08 01:04:15;;;;;;;8.93;5.90;;;;;;;;;;5022285;28;20116;-74
2021/07/08 01:06:44;;;;;;;10.32;6.60;;;;;;;;;;4990437;28;20037;-74
2021/07/08 01:09:12;;;;;;;9.18;6.20;;;;;;;;;;4990117;28;20030;-75
2021/07/08 01:11:37;;;;;;;7.10;6.05;;;;;;;;;;4990558;28;20025;-74
2021/07/08 01:14:04;;;;;;;9.80;5.40;;;;;;;;;;4989902;28;20030;-75
2021/07/08 01:16:30;;;;;;;6.88;5.68;;;;;;;;;;4990173;28;20019;-75
2021/07/08 01:18:55;;;;;;;9.90;6.43;;;;;;;;;;4990207;28;20034;-75
2021/07/08 01:21:28;;;;;;;12.82;6.38;;;;;;;;;;4989031;28;20073;-75
2021/07/08 01:23:55;;;;;;;8.13;6.03;;;;;;;;;;4989866;28;20026;-74
2021/07/08 01:26:21;;;;;;;10.85;5.85;;;;;;;;;;5021662;28;20033;-74
2021/07/08 01:28:50;;;;;;;11.00;5.80;;;;;;;;;;5021644;28;20027;-76
2021/07/08 01:31:17;;;;;;;6.60;5.78;;;;;;;;;;4990518;28;20037;-76
2021/07/08 01:33:42;;;;;;;11.20;6.43;;;;;;;;;;5021845;28;20109;-74
2021/07/08 01:36:08;;;;;;;9.70;6.53;;;;;;;;;;4990044;28;20109;-74
2021/07/08 01:38:34;;;;;;;10.65;6.82;;;;;;;;;;5021543;28;20025;-75
2021/07/08 01:41:00;;;;;;;9.23;6.10;;;;;;;;;;4990230;28;20019;-75
2021/07/08 01:43:25;;;;;;;9.00;7.25;;;;;;;;;;4990551;28;20026;-75
2021/07/08 01:45:51;;;;;;;15.07;6.80;;;;;;;;;;5005137;28;20383;-75
2021/07/08 01:48:16;;;;;;;9.65;7.30;;;;;;;;;;4990169;28;20034;-75
2021/07/08 01:50:42;;;;;;;16.50;7.53;;;;;;;;;;5021704;28;20112;-75
2021/07/08 01:53:08;;;;;;;11.95;8.13;;;;;;;;;;5021534;28;20029;-75
2021/07/08 01:55:33;;;;;;;12.13;7.40;;;;;;;;;;5021849;28;20062;-74
2021/07/08 01:58:01;;;;;;;11.30;7.07;;;;;;;;;;4991989;28;20068;-75
2021/07/08 02:00:27;;;;;;;12.05;7.45;;;;;;;;;;5025743;28;20057;-75
2021/07/08 02:02:54;;;;;;;11.38;7.35;;;;;;;;;;5025509;28;20054;-74
2021/07/08 02:05:20;;;;;;;11.35;7.13;;;;;;;;;;4993966;28;20691;-74
2021/07/08 02:07:45;;;;;;;11.63;7.18;;;;;;;;;;4994019;28;20096;-75
2021/07/08 02:10:13;;;;;;;14.98;8.38;;;;;;;;;;4993951;28;20033;-75
2021/07/08 02:12:39;;;;;;;13.32;7.13;;;;;;;;;;5025501;28;20416;-74
2021/07/08 02:15:07;;;;;;;9.07;7.45;;;;;;;;;;4993869;28;20034;-74
2021/07/08 02:17:33;;;;;;;10.63;6.78;;;;;;;;;;5025562;28;20034;-75
2021/07/08 02:19:59;;;;;;;22.48;8.23;;;;;;;;;;4993678;28;20331;-75
2021/07/08 02:22:25;;;;;;;12.70;7.82;;;;;;;;;;4992466;28;20030;-75
2021/07/08 02:24:50;;;;;;;17.80;7.97;;;;;;;;;;5008461;28;20033;-74
2021/07/08 02:27:16;;;;;;;14.52;10.50;;;;;;;;;;5025398;28;20263;-76
2021/07/08 02:29:41;;;;;;;12.20;8.43;;;;;;;;;;4993445;28;20037;-76
2021/07/08 02:32:08;;;;;;;15.00;7.15;;;;;;;;;;5024431;28;20160;-76
2021/07/08 02:34:37;;;;;;;10.40;7.07;;;;;;;;;;4993324;28;20019;-76
2021/07/08 02:37:07;;;;;;;7.35;5.85;;;;;;;;;;4993025;28;20037;-76
2021/07/08 02:39:33;;;;;;;10.02;6.25;;;;;;;;;;5024740;28;20023;-76
2021/07/08 02:41:59;;;;;;;11.07;6.43;;;;;;;;;;4993332;28;20065;-77
2021/07/08 02:44:24;;;;;;;9.73;6.22;;;;;;;;;;5024572;28;20062;-77
2021/07/08 02:46:50;;;;;;;9.90;6.80;;;;;;;;;;5024242;28;20023;-77
2021/07/08 02:49:16;;;;;;;9.10;6.30;;;;;;;;;;4992889;28;20034;-78
2021/07/08 02:51:42;;;;;;;26.00;6.15;;;;;;;;;;5024042;28;20132;-77
2021/07/08 02:54:08;;;;;;;20.00;6.53;;;;;;;;;;5023805;28;20078;-77
2021/07/08 02:56:33;;;;;;;9.13;5.55;;;;;;;;;;5024155;28;20372;-78
2021/07/08 02:58:59;;;;;;;10.45;5.90;;;;;;;;;;5023661;28;20270;-78
2021/07/08 03:01:25;;;;;;;14.38;6.53;;;;;;;;;;4992664;28;20451;-78
2021/07/08 03:03:50;;;;;;;17.00;8.57;;;;;;;;;;5007552;28;20037;-75
2021/07/08 03:06:15;;;;;;;13.43;8.90;;;;;;;;;;5023974;28;20030;-76
2021/07/08 03:08:41;;;;;;;10.32;7.43;;;;;;;;;;4992143;28;20026;-76
2021/07/08 03:11:07;;;;;;;17.77;7.40;;;;;;;;;;5023923;28;20455;-78
2021/07/08 03:13:32;;;;;;;10.55;6.65;;;;;;;;;;4992581;28;20105;-76
2021/07/08 03:15:58;;;;;;;13.93;7.00;;;;;;;;;;4992207;28;20030;-77
2021/07/08 03:18:23;;;;;;;8.65;6.03;;;;;;;;;;5023819;28;20505;-77
2021/07/08 03:20:49;;;;;;;11.52;7.00;;;;;;;;;;4992352;28;20037;-76
2021/07/08 03:23:14;;;;;;;17.13;6.60;;;;;;;;;;4991791;28;20132;-78
2021/07/08 03:25:41;;;;;;;9.90;6.30;;;;;;;;;;4992073;28;20172;-78
2021/07/08 03:28:07;;;;;;;9.43;5.95;;;;;;;;;;4991940;28;20080;-78
2021/07/08 03:30:32;;;;;;;9.95;6.15;;;;;;;;;;5023379;28;20030;-77
2021/07/08 03:32:59;;;;;;;18.27;6.35;;;;;;;;;;4992082;28;20026;-79
2021/07/08 03:35:28;;;;;;;29.33;8.80;;;;;;;;;;4992227;28;20521;-78
2021/07/08 03:37:54;;;;;;;9.60;6.82;;;;;;;;;;5023465;28;20026;-75
2021/07/08 03:40:20;;;;;;;13.57;7.28;;;;;;;;;;5023727;28;20033;-75
2021/07/08 03:42:48;;;;;;;10.23;6.85;;;;;;;;;;4991933;28;20347;-76
2021/07/08 03:45:14;;;;;;;9.73;6.18;;;;;;;;;;4991942;28;20455;-78
2021/07/08 03:47:40;;;;;;;15.88;6.70;;;;;;;;;;4991698;28;20064;-77
2021/07/08 03:50:08;;;;;;;9.57;6.10;;;;;;;;;;5006408;28;20038;-77
2021/07/08 03:52:33;;;;;;;14.68;5.70;;;;;;;;;;5022875;28;20027;-77
2021/07/08 03:54:59;;;;;;;7.15;5.78;;;;;;;;;;4991344;28;20033;-77
2021/07/08 03:57:24;;;;;;;9.27;6.28;;;;;;;;;;4990033;28;20439;-77
2021/07/08 03:59:50;;;;;;;12.13;5.97;;;;;;;;;;4991268;28;20073;-77
2021/07/08 04:02:15;;;;;;;6.60;4.93;;;;;;;;;;5022824;28;20511;-77
2021/07/08 04:04:41;;;;;;;10.55;5.55;;;;;;;;;;4991238;28;20037;-77
2021/07/08 04:07:08;;;;;;;15.93;7.93;;;;;;;;;;5022553;28;20477;-77
2021/07/08 04:09:33;;;;;;;7.70;5.38;;;;;;;;;;4991075;28;20038;-78
2021/07/08 04:12:00;;;;;;;12.93;5.25;;;;;;;;;;5022454;28;20351;-78
2021/07/08 04:14:26;;;;;;;7.25;5.72;;;;;;;;;;5022800;28;20032;-77
2021/07/08 04:16:51;;;;;;;11.07;5.70;;;;;;;;;;5022506;28;20027;-78
2021/07/08 04:19:17;;;;;;;10.02;6.10;;;;;;;;;;4990905;28;20022;-77
2021/07/08 04:21:43;;;;;;;11.60;5.97;;;;;;;;;;5021513;28;20030;-77
2021/07/08 04:24:20;;;;;;;10.27;6.03;;;;;;;;;;5021918;28;20022;-80
2021/07/08 04:26:46;;;;;;;11.10;6.63;;;;;;;;;;4989584;28;20037;-79
2021/07/08 04:29:11;;;;;;;11.70;7.30;;;;;;;;;;5021843;28;20022;-78
2021/07/08 04:31:37;;;;;;;14.48;7.25;;;;;;;;;;4991043;28;20231;-77
2021/07/08 04:34:03;;;;;;;12.30;7.65;;;;;;;;;;4990559;28;20026;-77
2021/07/08 04:36:28;;;;;;;13.52;7.68;;;;;;;;;;4991209;28;20478;-77
2021/07/08 04:38:54;;;;;;;14.30;7.72;;;;;;;;;;4990831;28;20022;-77
2021/07/08 04:41:21;;;;;;;13.45;7.22;;;;;;;;;;5021906;28;20033;-78
2021/07/08 04:43:46;;;;;;;12.60;8.57;;;;;;;;;;4990596;28;20390;-77
2021/07/08 04:46:13;;;;;;;15.70;8.52;;;;;;;;;;5021887;28;20033;-77
2021/07/08 04:48:39;;;;;;;16.05;8.10;;;;;;;;;;4990174;28;20053;-78
2021/07/08 04:51:05;;;;;;;15.18;6.95;;;;;;;;;;4990026;28;20443;-77
2021/07/08 04:53:30;;;;;;;13.38;6.72;;;;;;;;;;4988922;28;20242;-78
2021/07/08 04:55:56;;;;;;;13.93;6.88;;;;;;;;;;4990388;28;20034;-77
2021/07/08 04:58:22;;;;;;;14.38;7.03;;;;;;;;;;4989683;28;20487;-76
2021/07/08 05:00:47;;;;;;;22.77;7.40;;;;;;;;;;5021792;28;20026;-78
2021/07/08 05:03:13;;;;;;;20.70;7.18;;;;;;;;;;5021748;28;20056;-78
2021/07/08 05:05:38;;;;;;;15.80;7.00;;;;;;;;;;5021346;28;20092;-78
2021/07/08 05:08:05;;;;;;;17.02;7.30;;;;;;;;;;4989810;28;20033;-77
2021/07/08 05:10:31;;;;;;;11.40;6.60;;;;;;;;;;5022006;28;20026;-77
2021/07/08 05:12:57;;;;;;;18.10;7.18;;;;;;;;;;5021572;28;20019;-78
2021/07/08 05:15:22;;;;;;;12.13;7.75;;;;;;;;;;4990070;28;20037;-78
2021/07/08 05:17:49;;;;;;;19.38;6.63;;;;;;;;;;5021238;28;20049;-78
2021/07/08 05:20:16;;;;;;;9.60;6.75;;;;;;;;;;4989831;28;20097;-77
2021/07/08 05:22:46;;;;;;;15.10;6.43;;;;;;;;;;4988502;28;20030;-79
2021/07/08 05:25:14;;;;;;;8.90;6.00;;;;;;;;;;4989672;28;20026;-78
2021/07/08 05:27:40;;;;;;;9.63;6.15;;;;;;;;;;4988788;28;20433;-78
2021/07/08 05:30:08;;;;;;;12.32;6.15;;;;;;;;;;5021076;28;20117;-77
2021/07/08 05:32:34;;;;;;;13.40;6.43;;;;;;;;;;4990062;28;20041;-77
2021/07/08 05:35:00;;;;;;;25.60;7.38;;;;;;;;;;4989742;28;20431;-75
2021/07/08 05:37:25;;;;;;;17.95;6.88;;;;;;;;;;4990057;28;20193;-78
2021/07/08 05:39:51;;;;;;;19.05;7.18;;;;;;;;;;4989514;28;20014;-77
2021/07/08 05:42:16;;;;;;;15.43;7.28;;;;;;;;;;4989358;28;20489;-78
2021/07/08 05:44:42;;;;;;;11.93;7.18;;;;;;;;;;4989902;28;20022;-78
2021/07/08 05:47:07;;;;;;;13.60;6.43;;;;;;;;;;4989511;28;20475;-78
2021/07/08 05:49:33;;;;;;;11.82;7.88;;;;;;;;;;4989245;28;20037;-79
2021/07/08 05:51:58;;;;;;;11.43;6.88;;;;;;;;;;4989774;28;20107;-76
2021/07/08 05:54:25;;;;;;;20.13;8.05;;;;;;;;;;5020488;28;20027;-77
2021/07/08 05:56:50;;;;;;;18.42;7.28;;;;;;;;;;5021521;28;20033;-77
2021/07/08 05:59:16;;;;;;;12.80;8.10;;;;;;;;;;5020719;28;20407;-77
2021/07/08 06:01:41;;;;;;;12.77;8.20;;;;;;;;;;4989924;28;20030;-77
2021/07/08 06:04:07;;;;;;;12.95;7.72;;;;;;;;;;4987846;28;20371;-78
2021/07/08 06:06:32;;;;;;;15.35;8.30;;;;;;;;;;4989846;28;20030;-78
2021/07/08 06:08:58;;;;;;;13.82;8.10;;;;;;;;;;4990516;28;20579;-78
2021/07/08 06:11:23;;;;;;;20.15;8.45;;;;;;;;;;5021937;28;20031;-79
2021/07/08 06:13:48;;;;;;;9.90;6.28;;;;;;;;;;4989840;28;20031;-79
2021/07/08 06:16:14;;;;;;;11.63;6.78;;;;;;;;;;4988003;28;20137;-79
2021/07/08 06:18:39;;;;;;;11.38;7.53;;;;;;;;;;4989628;28;20544;-79
2021/07/08 06:21:06;;;;;;;19.52;6.90;;;;;;;;;;5004232;28;20113;-77
2021/07/08 06:23:32;;;;;;;16.88;7.25;;;;;;;;;;5020559;28;20490;-77
2021/07/08 06:25:58;;;;;;;16.58;7.47;;;;;;;;;;4988872;28;20033;-75
2021/07/08 06:28:24;;;;;;;12.60;6.90;;;;;;;;;;4989304;28;20383;-77
2021/07/08 06:30:50;;;;;;;15.82;10.18;;;;;;;;;;4989194;28;20525;-77
2021/07/08 06:33:16;;;;;;;13.55;6.65;;;;;;;;;;4987422;28;20038;-76
2021/07/08 06:35:43;;;;;;;12.93;7.43;;;;;;;;;;4989462;28;20432;-76
2021/07/08 06:38:09;;;;;;;12.73;7.07;;;;;;;;;;4984041;28;20516;-77
2021/07/08 06:40:34;;;;;;;14.68;7.90;;;;;;;;;;4979878;28;20027;-76
2021/07/08 06:43:01;;;;;;;15.68;7.53;;;;;;;;;;4979887;28;20033;-76
2021/07/08 06:45:28;;;;;;;16.92;10.02;;;;;;;;;;4990094;28;20096;-77
2021/07/08 06:48:02;;;;;;;15.45;7.25;;;;;;;;;;4991864;28;20375;-77
2021/07/08 06:50:28;;;;;;;15.35;7.65;;;;;;;;;;4995103;28;20030;-76
2021/07/08 06:52:53;;;;;;;19.40;8.43;;;;;;;;;;4995933;28;20030;-76
2021/07/08 06:55:19;;;;;;;19.98;10.07;;;;;;;;;;4983898;28;20103;-77
2021/07/08 06:57:51;;;;;;;19.33;8.35;;;;;;;;;;4981715;28;20120;-76
2021/07/08 07:00:28;;;;;;;15.68;9.30;;;;;;;;;;4980127;28;20433;-76
2021/07/08 07:02:55;;;;;;;26.58;9.25;;;;;;;;;;4987673;28;20046;-77
2021/07/08 07:05:21;;;;;;;12.65;8.85;;;;;;;;;;4982749;28;20466;-76
2021/07/08 07:07:47;;;;;;;16.95;10.55;;;;;;;;;;4989963;28;20458;-76
2021/07/08 07:10:15;;;;;;;16.65;9.80;;;;;;;;;;4989782;28;20430;-78
2021/07/08 07:12:44;;;;;;;17.98;9.45;;;;;;;;;;4989138;28;20045;-76
2021/07/08 07:15:11;;;;;;;18.23;10.90;;;;;;;;;;4984927;28;20034;-75
2021/07/08 07:17:38;;;;;;;17.60;10.02;;;;;;;;;;5018132;28;20042;-77
2021/07/08 07:20:09;;;;;;;20.10;11.38;;;;;;;;;;4988760;28;20030;-75
2021/07/08 07:22:36;;;;;;;16.00;10.70;;;;;;;;;;5016606;28;20034;-76
2021/07/08 07:25:04;;;;;;;21.30;10.60;;;;;;;;;;4988298;28;20104;-76
2021/07/08 07:27:30;;;;;;;20.17;12.18;;;;;;;;;;4990772;28;20032;-76
2021/07/08 07:29:55;;;;;;;18.58;12.30;;;;;;;;;;4987321;28;20022;-77
2021/07/08 07:32:22;;;;;;;20.70;11.85;;;;;;;;;;4988114;28;20034;-76
2021/07/08 07:34:48;;;;;;;20.42;12.35;;;;;;;;;;4987337;28;20022;-78
2021/07/08 07:37:13;;;;;;;24.65;14.57;;;;;;;;;;4983379;28;20037;-77
2021/07/08 07:39:39;;;;;;;20.17;11.27;;;;;;;;;;5004106;28;20077;-77
2021/07/08 07:42:04;;;;;;;18.17;10.75;;;;;;;;;;4987404;28;20443;-76
2021/07/08 07:44:30;;;;;;;19.50;11.98;;;;;;;;;;4989076;28;20038;-77
2021/07/08 07:46:55;;;;;;;17.35;10.35;;;;;;;;;;4999377;28;20033;-77
2021/07/08 07:49:24;;;;;;;18.23;12.05;;;;;;;;;;4989908;28;20577;-77
2021/07/08 07:51:51;;;;;;;20.08;11.52;;;;;;;;;;5002354;28;20117;-77
2021/07/08 07:54:17;;;;;;;20.50;13.23;;;;;;;;;;4987892;28;20034;-77
2021/07/08 07:56:43;;;;;;;19.67;10.85;;;;;;;;;;4986200;28;20026;-76
2021/07/08 07:59:09;;;;;;;18.48;11.57;;;;;;;;;;5019147;28;20050;-77
2021/07/08 08:01:34;;;;;;;21.55;11.55;;;;;;;;;;4987257;28;20054;-77
2021/07/08 08:04:00;;;;;;;19.15;11.68;;;;;;;;;;4984667;28;20057;-78
2021/07/08 08:09:11;;;;;;;23.17;12.57;;;;;;;;;;4986884;28;20048;-76
2021/07/08 08:11:38;;;;;;;20.85;10.95;;;;;;;;;;4987027;28;20034;-76
2021/07/08 08:14:05;;;;;;;14.20;9.02;;;;;;;;;;5000020;28;20030;-77
2021/07/08 08:16:33;;;;;;;17.30;9.27;;;;;;;;;;4996669;28;20030;-78
2021/07/08 08:18:58;;;;;;;17.38;9.38;;;;;;;;;;5000495;28;20033;-79
2021/07/08 08:21:24;;;;;;;15.10;8.20;;;;;;;;;;4985137;28;20038;-76
2021/07/08 08:23:49;;;;;;;18.90;8.68;;;;;;;;;;4985480;28;20111;-77
2021/07/08 08:26:15;;;;;;;18.77;8.55;;;;;;;;;;4985232;28;20083;-78
2021/07/08 08:28:40;;;;;;;14.10;7.88;;;;;;;;;;5000414;28;20041;-76
2021/07/08 08:31:07;;;;;;;10.52;7.35;;;;;;;;;;4984984;28;20034;-77
2021/07/08 08:33:33;;;;;;;11.05;7.38;;;;;;;;;;4986591;28;20049;-77
2021/07/08 08:35:58;;;;;;;15.63;7.38;;;;;;;;;;4983280;28;20030;-79
2021/07/08 08:38:24;;;;;;;12.13;7.18;;;;;;;;;;4984237;28;21144;-77
2021/07/08 08:40:49;;;;;;;15.25;6.57;;;;;;;;;;4983697;28;20030;-77
2021/07/08 08:43:16;;;;;;;10.95;6.68;;;;;;;;;;4976630;28;20125;-76
2021/07/08 08:45:41;;;;;;;11.60;5.15;;;;;;;;;;4984250;28;20057;-77
2021/07/08 08:48:09;;;;;;;9.95;5.05;;;;;;;;;;4993013;28;20126;-76
2021/07/08 08:50:38;;;;;;;9.32;5.28;;;;;;;;;;4974497;28;20034;-77
2021/07/08 08:53:05;;;;;;;10.02;6.00;;;;;;;;;;5006642;28;20085;-77
2021/07/08 08:55:36;;;;;;;8.10;5.03;;;;;;;;;;4987474;28;20471;-77
2021/07/08 08:58:07;;;;;;;8.15;5.65;;;;;;;;;;4982451;28;20105;-77
2021/07/08 09:00:54;;;;;;;12.68;6.10;;;;;;;;;;4981721;28;20031;-77
2021/07/08 09:03:27;;;;;;;9.15;6.10;;;;;;;;;;4995485;28;20073;-76
2021/07/08 09:06:09;;;;;;;9.13;5.45;;;;;;;;;;4981062;28;20042;-76
2021/07/08 09:08:36;;;;;;;9.10;6.00;;;;;;;;;;4984711;28;20042;-76
2021/07/08 09:11:19;;;;;;;8.35;6.10;;;;;;;;;;4985393;28;20110;-76
2021/07/08 09:13:57;;;;;;;8.75;5.75;;;;;;;;;;4998785;28;20038;-77
2021/07/08 09:16:31;;;;;;;19.02;9.60;;;;;;;;;;5019289;28;20048;-75
2021/07/08 09:19:11;;;;;;;8.23;5.72;;;;;;;;;;4984263;28;20032;-77
2021/07/08 09:21:43;;;;;;;12.03;6.73;;;;;;;;;;4982997;28;20085;-77
2021/07/08 09:24:15;;;;;;;17.25;8.07;;;;;;;;;;4982777;28;21376;-77
2021/07/08 09:27:13;;;;;;;10.32;5.70;;;;;;;;;;4977555;28;20045;-76
2021/07/08 09:29:41;;;;;;;45.42;8.70;;;;;;;;;;4976783;28;20085;-75
2021/07/08 09:32:15;;;;;;;8.60;5.53;;;;;;;;;;4974731;28;20045;-76
2021/07/08 09:34:45;;;;;;;13.35;6.13;;;;;;;;;;4976620;28;20064;-79
2021/07/08 09:37:16;;;;;;;8.80;5.60;;;;;;;;;;5010059;28;20470;-77
2021/07/08 09:39:44;;;;;;;10.45;6.15;;;;;;;;;;4974087;28;20620;-76
2021/07/08 09:42:14;;;;;;;16.52;7.13;;;;;;;;;;4976589;28;20049;-77
2021/07/08 09:44:41;;;;;;;11.45;4.90;;;;;;;;;;4978516;28;20537;-76
2021/07/08 09:47:24;;;;;;;12.10;6.00;;;;;;;;;;5011445;28;20088;-76
2021/07/08 09:49:50;;;;;;;11.35;5.90;;;;;;;;;;4983122;28;20422;-76
2021/07/08 09:52:18;;;;;;;9.82;6.13;;;;;;;;;;4982789;28;20529;-75
2021/07/08 09:55:04;;;;;;;9.05;6.00;;;;;;;;;;4986224;28;20136;-76
2021/07/08 09:57:33;;;;;;;11.40;7.20;;;;;;;;;;4993143;28;20085;-77
2021/07/08 09:59:59;;;;;;;13.73;6.80;;;;;;;;;;4983656;28;20030;-77
2021/07/08 10:02:29;;;;;;;8.80;6.50;;;;;;;;;;4977753;28;20049;-76
2021/07/08 10:04:55;;;;;;;9.27;5.57;;;;;;;;;;4982369;28;20873;-76
2021/07/08 10:07:22;;;;;;;12.05;6.68;;;;;;;;;;4979877;28;20132;-77
2021/07/08 10:09:48;;;;;;;11.45;7.20;;;;;;;;;;4978975;28;20245;-76
2021/07/08 10:12:14;;;;;;;10.32;6.68;;;;;;;;;;4978910;28;20030;-76
2021/07/08 10:14:42;;;;;;;9.82;6.38;;;;;;;;;;4983347;28;20180;-76
2021/07/08 10:17:09;;;;;;;9.20;7.50;;;;;;;;;;5012193;28;20155;-76
2021/07/08 10:19:37;;;;;;;14.93;6.85;;;;;;;;;;4984203;28;20065;-75
2021/07/08 10:22:03;;;;;;;12.27;6.50;;;;;;;;;;4988750;28;20026;-76
2021/07/08 10:24:30;;;;;;;12.70;7.50;;;;;;;;;;4987041;28;20077;-76
2021/07/08 10:26:57;;;;;;;11.30;6.35;;;;;;;;;;5002345;28;20076;-75
2021/07/08 10:29:23;;;;;;;13.63;6.72;;;;;;;;;;4986685;28;20026;-75
2021/07/08 10:31:50;;;;;;;8.52;6.50;;;;;;;;;;4984794;28;20030;-74
2021/07/08 10:34:20;;;;;;;7.78;5.93;;;;;;;;;;5001243;28;20096;-76
2021/07/08 10:36:51;;;;;;;8.32;6.78;;;;;;;;;;4983785;28;20073;-75
2021/07/08 10:39:19;;;;;;;9.70;6.82;;;;;;;;;;4999775;28;20037;-75
2021/07/08 10:41:50;;;;;;;11.02;7.85;;;;;;;;;;5014755;28;20093;-76
2021/07/08 10:45:00;;;;;;;9.85;6.55;;;;;;;;;;4977595;28;20378;-77
2021/07/08 10:47:33;;;;;;;9.07;6.35;;;;;;;;;;4977568;28;20042;-76
2021/07/08 10:49:59;;;;;;;8.55;6.15;;;;;;;;;;4989835;28;20023;-77
2021/07/08 10:52:47;;;;;;;10.77;6.65;;;;;;;;;;5014798;28;20041;-77
2021/07/08 10:55:38;;;;;;;9.32;7.05;;;;;;;;;;4997390;28;20053;-77
2021/07/08 10:58:05;;;;;;;9.75;6.35;;;;;;;;;;4985306;28;20570;-77
2021/07/08 11:01:00;;;;;;;9.38;6.30;;;;;;;;;;4984104;28;20038;-78
2021/07/08 11:03:45;;;;;;;10.60;6.90;;;;;;;;;;4979977;28;20677;-77
2021/07/08 11:06:30;;;;;;;10.25;6.82;;;;;;;;;;5014621;28;20666;-77
2021/07/08 11:09:02;;;;;;;10.35;7.10;;;;;;;;;;4984524;28;20129;-77
2021/07/08 11:11:27;;;;;;;11.13;6.72;;;;;;;;;;4998650;28;20097;-76
2021/07/08 11:13:54;;;;;;;15.73;6.60;;;;;;;;;;4984833;28;20026;-76
2021/07/08 11:16:39;;;;;;;10.43;6.00;;;;;;;;;;4982102;28;20045;-76
2021/07/08 11:19:05;;;;;;;8.52;5.82;;;;;;;;;;4985292;28;20093;-77
2021/07/08 11:21:49;;;;;;;10.73;6.25;;;;;;;;;;5015405;28;20038;-76
2021/07/08 11:24:19;;;;;;;14.23;8.05;;;;;;;;;;4985882;28;20084;-78
2021/07/08 11:26:53;;;;;;;9.60;5.90;;;;;;;;;;4978907;28;20164;-77
2021/07/08 11:29:42;;;;;;;8.00;5.90;;;;;;;;;;4982514;28;20530;-77
2021/07/08 11:32:22;;;;;;;7.82;5.75;;;;;;;;;;5013420;28;20049;-75
2021/07/08 11:34:53;;;;;;;9.35;5.90;;;;;;;;;;4980512;28;20065;-77
2021/07/08 11:37:23;;;;;;;6.68;5.68;;;;;;;;;;4980544;28;20042;-76
2021/07/08 11:39:58;;;;;;;10.47;5.63;;;;;;;;;;4985957;28;20026;-78
2021/07/08 11:42:29;;;;;;;10.07;5.30;;;;;;;;;;5016286;28;21897;-76
2021/07/08 11:44:54;;;;;;;6.38;5.30;;;;;;;;;;4984071;28;20018;-72
2021/07/08 11:47:21;;;;;;;8.82;5.82;;;;;;;;;;4995851;28;20401;-77
2021/07/08 11:49:50;;;;;;;9.38;5.18;;;;;;;;;;4984583;28;20038;-78
2021/07/08 11:52:22;;;;;;;18.92;7.30;;;;;;;;;;4997345;28;20053;-76
2021/07/08 11:54:58;;;;;;;10.98;5.90;;;;;;;;;;4998331;28;20450;-77
2021/07/08 11:57:24;;;;;;;10.05;6.05;;;;;;;;;;5013980;28;20060;-77
2021/07/08 11:59:50;;;;;;;17.13;7.03;;;;;;;;;;5015884;28;20156;-77
2021/07/08 12:02:33;;;;;;;11.20;6.03;;;;;;;;;;4982828;28;20794;-77
2021/07/08 12:05:19;;;;;;;9.02;6.43;;;;;;;;;;5015195;28;20081;-77
2021/07/08 12:08:06;;;;;;;8.23;6.97;;;;;;;;;;5013587;28;20125;-76
2021/07/08 12:10:34;;;;;;;10.15;6.93;;;;;;;;;;4985731;28;20034;-76
2021/07/08 12:13:02;;;;;;;9.15;6.55;;;;;;;;;;4982714;28;20190;-76
2021/07/08 12:15:28;;;;;;;9.45;6.60;;;;;;;;;;4999624;28;20041;-77
2021/07/08 12:18:01;;;;;;;13.07;6.90;;;;;;;;;;4982660;28;20595;-77
2021/07/08 12:20:28;;;;;;;11.85;6.80;;;;;;;;;;5011863;28;20069;-77
2021/07/08 12:22:58;;;;;;;11.13;7.63;;;;;;;;;;4980994;28;20109;-77
2021/07/08 12:25:25;;;;;;;11.73;7.20;;;;;;;;;;4992600;28;20449;-77
2021/07/08 12:27:52;;;;;;;11.35;7.20;;;;;;;;;;4977033;28;20034;-77
2021/07/08 12:30:23;;;;;;;7.93;7.03;;;;;;;;;;4980598;28;20026;-77
2021/07/08 12:33:02;;;;;;;;;;;;;;;;;;4980528;28;20125;-76
2021/07/08 12:35:45;;;;;;;11.18;7.97;;;;;;;;;;4986612;28;20068;-76
2021/07/08 12:38:12;;;;;;;12.68;9.02;;;;;;;;;;4986860;28;20026;-77
2021/07/08 12:40:39;;;;;;;24.20;21.45;;;;;;;;;;4982784;28;20029;-76
2021/07/08 12:43:10;;;;;;;9.48;7.38;;;;;;;;;;4978768;28;20041;-76
2021/07/08 12:45:36;;;;;;;10.15;6.50;;;;;;;;;;4982208;28;20141;-76
2021/07/08 12:48:03;;;;;;;13.02;8.27;;;;;;;;;;4982454;28;20036;-75
2021/07/08 12:50:36;;;;;;;10.35;9.05;;;;;;;;;;4982804;28;20041;-76
2021/07/08 12:53:10;;;;;;;11.02;8.20;;;;;;;;;;4996101;28;20117;-76
2021/07/08 12:55:49;;;;;;;12.23;8.05;;;;;;;;;;4980222;28;20038;-77
2021/07/08 12:58:25;;;;;;;13.43;7.68;;;;;;;;;;4983859;28;20245;-77
2021/07/08 13:00:54;;;;;;;17.58;8.43;;;;;;;;;;4996205;28;20019;-76
2021/07/08 13:03:22;;;;;;;12.40;9.27;;;;;;;;;;4979598;28;20030;-76
2021/07/08 13:05:48;;;;;;;11.65;8.10;;;;;;;;;;4982121;28;20050;-77
2021/07/08 13:08:17;;;;;;;11.70;9.25;;;;;;;;;;4981122;28;20030;-78
2021/07/08 13:10:47;;;;;;;13.25;9.00;;;;;;;;;;4999120;28;20037;-76
2021/07/08 13:13:15;;;;;;;12.60;10.45;;;;;;;;;;4980184;28;20034;-77
2021/07/08 13:15:46;;;;;;;13.05;9.63;;;;;;;;;;5014660;28;20093;-77
2021/07/08 13:18:14;;;;;;;16.58;11.25;;;;;;;;;;4982951;28;20018;-77
2021/07/08 13:20:42;;;;;;;19.35;11.30;;;;;;;;;;4998476;28;20061;-77
2021/07/08 13:23:18;;;;;;;14.77;10.25;;;;;;;;;;4995513;28;20113;-77
2021/07/08 13:25:48;;;;;;;13.52;10.20;;;;;;;;;;4985028;28;20041;-77
2021/07/08 13:28:18;;;;;;;12.43;9.30;;;;;;;;;;4994635;28;20030;-77
2021/07/08 13:30:45;;;;;;;17.43;10.37;;;;;;;;;;4997037;28;20066;-77
2021/07/08 13:33:10;;;;;;;18.33;10.68;;;;;;;;;;4994954;28;20057;-78
2021/07/08 13:35:46;;;;;;;15.88;10.57;;;;;;;;;;4985576;28;20502;-77
2021/07/08 13:38:18;;;;;;;17.98;10.23;;;;;;;;;;4997308;28;20026;-77
2021/07/08 13:41:27;;;;;;;16.15;10.82;;;;;;;;;;5014504;28;20034;-75
2021/07/08 13:43:59;;;;;;;14.93;10.07;;;;;;;;;;4969501;28;20038;-77
2021/07/08 13:46:29;;;;;;;15.85;11.68;;;;;;;;;;5014332;28;20037;-76
2021/07/08 13:49:11;;;;;;;19.48;11.25;;;;;;;;;;4996618;28;20096;-75
2021/07/08 13:51:58;;;;;;;16.25;11.15;;;;;;;;;;4983411;28;20037;-77
2021/07/08 13:54:26;;;;;;;16.20;9.05;;;;;;;;;;4985831;28;20022;-76
2021/07/08 13:56:53;;;;;;;16.35;11.65;;;;;;;;;;4987925;28;20119;-76
2021/07/08 13:59:20;;;;;;;22.33;12.23;;;;;;;;;;5020936;28;20050;-76
2021/07/08 14:01:47;;;;;;;17.15;11.30;;;;;;;;;;5017464;28;20455;-76
2021/07/08 14:04:13;;;;;;;11.77;9.15;;;;;;;;;;4985200;28;20127;-77
2021/07/08 14:06:38;;;;;;;15.77;9.25;;;;;;;;;;4990318;28;20478;-77
2021/07/08 14:09:05;;;;;;;16.27;11.27;;;;;;;;;;5007132;28;20022;-76
2021/07/08 14:11:32;;;;;;;11.75;9.05;;;;;;;;;;4991578;28;20026;-79
2021/07/08 14:14:01;;;;;;;14.02;9.13;;;;;;;;;;4991716;28;20022;-77
2021/07/08 14:16:28;;;;;;;20.27;9.95;;;;;;;;;;4990828;28;20518;-76
2021/07/08 14:18:54;;;;;;;16.98;10.13;;;;;;;;;;4991982;28;20085;-76
2021/07/08 14:21:20;;;;;;;20.77;11.00;;;;;;;;;;5005230;28;20050;-77
2021/07/08 14:23:47;;;;;;;20.48;12.90;;;;;;;;;;4989810;28;20037;-76
2021/07/08 14:26:13;;;;;;;17.73;11.10;;;;;;;;;;4988814;28;20026;-76
2021/07/08 14:28:39;;;;;;;16.05;9.57;;;;;;;;;;4989420;28;20069;-76
2021/07/08 14:31:09;;;;;;;18.35;10.50;;;;;;;;;;4991333;28;20068;-78
2021/07/08 14:33:35;;;;;;;18.15;10.80;;;;;;;;;;4990713;28;20031;-76
2021/07/08 14:36:02;;;;;;;13.60;8.13;;;;;;;;;;4992631;28;20034;-78
2021/07/08 14:38:29;;;;;;;16.73;8.32;;;;;;;;;;4990073;28;20032;-76
2021/07/08 14:40:55;;;;;;;14.18;7.38;;;;;;;;;;5007198;28;20022;-76